Time;durP1;ratioP1;P1;durP2;ratioP2;P2;SDS_P1;SDS_P2;PMS_P1;PMS_P2;Temp;Humidity;BMP_temperature;BMP_pressure;BME280_temperature;BME280_humidity;BME280_pressure;Samples;Min_cycle;Max_cycle;Signal;HPM_P1;HPM_P2
2023/07/24 00:01:47;;;;;;;6.93;4.28;;;28.20;81.80;;;;;;10756500;33;20055;-73
2023/07/24 00:07:49;;;;;;;7.65;4.87;;;28.10;81.90;;;;;;10755440;33;20047;-73
2023/07/24 00:13:52;;;;;;;7.45;4.12;;;28.10;81.70;;;;;;10756078;32;20036;-73
2023/07/24 00:19:54;;;;;;;7.50;4.72;;;28.10;81.90;;;;;;10756068;33;20051;-73
2023/07/24 00:25:56;;;;;;;9.88;4.68;;;28.10;81.80;;;;;;10755801;33;20052;-73
2023/07/24 00:31:59;;;;;;;13.43;5.15;;;28.10;81.60;;;;;;10755626;33;20043;-73
2023/07/24 00:38:01;;;;;;;8.82;4.97;;;28.10;81.40;;;;;;10755445;33;20346;-73
2023/07/24 00:44:04;;;;;;;10.35;5.68;;;28.00;81.30;;;;;;10755255;33;20429;-73
2023/07/24 00:50:07;;;;;;;9.80;4.72;;;28.00;81.10;;;;;;10755263;33;20079;-73
2023/07/24 00:56:11;;;;;;;5.32;3.67;;;27.90;81.20;;;;;;10754126;33;20025;-73
2023/07/24 01:02:13;;;;;;;7.15;3.83;;;27.80;81.20;;;;;;10754580;33;20432;-73
2023/07/24 01:08:15;;;;;;;5.68;3.62;;;27.80;81.50;;;;;;10754557;32;20087;-73
2023/07/24 01:14:26;;;;;;;5.25;3.40;;;27.80;82.00;;;;;;10754396;32;20040;-73
2023/07/24 01:20:30;;;;;;;5.95;4.30;;;27.80;82.50;;;;;;10754248;33;20024;-73
2023/07/24 01:26:33;;;;;;;6.37;3.97;;;27.70;82.50;;;;;;10753212;33;20017;-73
2023/07/24 01:32:37;;;;;;;7.22;4.35;;;27.80;82.30;;;;;;10753963;33;20433;-73
2023/07/24 01:38:41;;;;;;;6.57;3.58;;;27.70;82.50;;;;;;10753187;33;20039;-73
2023/07/24 01:44:54;;;;;;;8.73;4.05;;;27.70;82.80;;;;;;10753507;33;20052;-73
2023/07/24 01:50:58;;;;;;;11.27;4.57;;;27.70;82.70;;;;;;10753430;33;20043;-73
2023/07/24 01:57:00;;;;;;;7.68;4.62;;;27.70;82.80;;;;;;10753256;33;20330;-73
2023/07/24 02:03:02;;;;;;;6.45;4.12;;;27.60;82.70;;;;;;10748973;33;20054;-73
2023/07/24 02:09:05;;;;;;;8.57;5.15;;;27.70;82.80;;;;;;10753001;33;20047;-73
2023/07/24 02:15:07;;;;;;;7.20;4.57;;;27.60;83.20;;;;;;10763591;33;20326;-73
2023/07/24 02:21:10;;;;;;;5.80;3.78;;;27.60;83.30;;;;;;10752881;33;20025;-73
2023/07/24 02:27:24;;;;;;;6.47;4.32;;;27.50;83.20;;;;;;10752393;32;20029;-73
2023/07/24 02:33:27;;;;;;;10.63;4.32;;;27.50;83.40;;;;;;10752232;33;20013;-73
2023/07/24 02:39:31;;;;;;;7.47;3.92;;;27.50;83.40;;;;;;10738761;33;20059;-73
2023/07/24 02:45:38;;;;;;;17.23;4.37;;;27.40;83.10;;;;;;10941941;27;20298;-73
2023/07/24 02:51:43;;;;;;;6.53;4.43;;;27.40;82.90;;;;;;10979345;32;20427;-73
2023/07/24 02:57:48;;;;;;;5.90;3.95;;;27.40;83.30;;;;;;10966456;32;20077;-73
2023/07/24 03:03:54;;;;;;;6.47;3.60;;;27.30;83.30;;;;;;10966490;32;20069;-73
2023/07/24 03:09:56;;;;;;;8.55;4.25;;;27.30;83.40;;;;;;10966134;32;20133;-73
2023/07/24 03:15:59;;;;;;;6.40;3.55;;;27.30;83.60;;;;;;10979466;32;20397;-73
2023/07/24 03:22:01;;;;;;;5.65;3.80;;;27.20;83.80;;;;;;10979223;32;20413;-73
2023/07/24 03:28:12;;;;;;;6.78;4.18;;;27.30;83.90;;;;;;10975167;32;20085;-73
2023/07/24 03:34:15;;;;;;;6.28;4.37;;;27.20;83.80;;;;;;10965342;32;20030;-73
2023/07/24 03:40:18;;;;;;;10.68;4.65;;;27.10;83.90;;;;;;10962610;32;20022;-73
2023/07/24 03:46:22;;;;;;;6.30;4.15;;;27.00;84.10;;;;;;10974800;32;20023;-73
2023/07/24 03:52:26;;;;;;;8.18;5.00;;;26.90;84.20;;;;;;10978718;32;20036;-73
2023/07/24 03:58:30;;;;;;;6.47;4.10;;;26.90;84.30;;;;;;10948339;32;20035;-73
2023/07/24 04:04:48;;;;;;;6.93;4.47;;;26.80;84.70;;;;;;10985748;32;20339;-73
2023/07/24 04:10:56;;;;;;;10.38;5.10;;;26.80;84.80;;;;;;10971998;32;20027;-73
2023/07/24 04:17:00;;;;;;;6.68;4.57;;;26.80;85.00;;;;;;10985366;32;20400;-73
2023/07/24 04:23:05;;;;;;;7.68;4.75;;;26.80;84.80;;;;;;10971461;32;20030;-73
2023/07/24 04:29:12;;;;;;;;;;;26.90;84.70;;;;;;10972452;32;20033;-73
2023/07/24 04:35:20;;;;;;;8.57;6.03;;;26.90;84.50;;;;;;10984683;32;19941;-73
2023/07/24 04:41:24;;;;;;;10.27;5.12;;;26.90;84.70;;;;;;10984241;32;20400;-73
2023/07/24 04:47:29;;;;;;;6.85;4.90;;;27.00;84.50;;;;;;10984338;32;20095;-73
2023/07/24 04:53:37;;;;;;;7.20;4.67;;;27.00;84.70;;;;;;10971847;32;20472;-73
2023/07/24 04:59:40;;;;;;;14.63;6.57;;;26.90;84.90;;;;;;10983670;32;20056;-73
2023/07/24 05:05:51;;;;;;;9.73;5.12;;;27.00;84.70;;;;;;10967733;32;20344;-73
2023/07/24 05:12:03;;;;;;;7.50;5.32;;;27.00;84.80;;;;;;10969089;32;20034;-73
2023/07/24 05:18:10;;;;;;;9.27;5.60;;;27.00;84.90;;;;;;10983271;32;20379;-73
2023/07/24 05:24:26;;;;;;;10.18;5.82;;;27.10;84.80;;;;;;10982989;32;20046;-74
2023/07/24 05:30:34;;;;;;;7.30;5.20;;;27.00;85.00;;;;;;10982654;32;20038;-73
2023/07/24 05:36:43;;;;;;;6.30;4.97;;;26.80;85.20;;;;;;10970806;32;20022;-73
2023/07/24 05:43:04;;;;;;;8.88;5.10;;;26.80;85.30;;;;;;10970354;32;20403;-73
2023/07/24 05:49:10;;;;;;;13.45;5.10;;;27.00;85.10;;;;;;10981566;32;20042;-73
2023/07/24 05:55:25;;;;;;;9.60;5.12;;;27.00;85.00;;;;;;10983161;32;20019;-72
2023/07/24 06:01:41;;;;;;;7.72;5.18;;;27.10;85.30;;;;;;10956144;32;20031;-74
2023/07/24 06:08:10;;;;;;;8.77;5.03;;;27.20;85.40;;;;;;10902334;32;20062;-72
2023/07/24 06:14:23;;;;;;;8.13;4.62;;;27.20;85.30;;;;;;10888113;32;20389;-73
2023/07/24 06:20:36;;;;;;;8.60;5.72;;;27.30;84.90;;;;;;10890494;32;20055;-74
2023/07/24 06:26:55;;;;;;;13.95;9.02;;;27.30;84.60;;;;;;10790933;33;20028;-73
2023/07/24 06:33:15;;;;;;;16.48;6.50;;;27.40;84.40;;;;;;10752592;33;20431;-74
2023/07/24 06:39:28;;;;;;;8.80;5.72;;;27.20;84.50;;;;;;10787787;33;20319;-73
2023/07/24 06:45:35;;;;;;;6.97;4.72;;;27.10;84.80;;;;;;10789367;33;20028;-74
2023/07/24 06:51:43;;;;;;;10.95;6.37;;;27.20;84.90;;;;;;10789225;33;20043;-74
2023/07/24 06:57:57;;;;;;;8.50;5.45;;;27.20;85.10;;;;;;10789728;33;20051;-73
2023/07/24 07:04:12;;;;;;;8.25;5.55;;;27.20;85.20;;;;;;10790284;33;20054;-73
2023/07/24 07:10:23;;;;;;;8.43;5.05;;;27.20;85.60;;;;;;10845347;32;20394;-73
2023/07/24 07:16:31;;;;;;;10.90;6.12;;;27.50;85.40;;;;;;10862734;32;20020;-73
2023/07/24 07:22:33;;;;;;;6.03;3.75;;;27.90;85.30;;;;;;10934877;32;20435;-71
2023/07/24 07:28:57;;;;;;;8.73;5.37;;;28.00;85.10;;;;;;10979226;32;20022;-71
2023/07/24 07:34:59;;;;;;;7.85;5.32;;;28.00;85.00;;;;;;10954191;32;20062;-71
2023/07/24 07:41:05;;;;;;;9.30;5.45;;;28.00;84.80;;;;;;10986653;32;20042;-71
2023/07/24 07:47:07;;;;;;;11.68;6.50;;;28.10;84.80;;;;;;10972675;32;20340;-71
2023/07/24 07:53:09;;;;;;;9.27;5.35;;;28.30;84.00;;;;;;10986236;32;20018;-71
2023/07/24 07:59:11;;;;;;;9.20;5.65;;;28.40;83.80;;;;;;10986021;32;20045;-73
2023/07/24 08:05:13;;;;;;;9.23;6.25;;;28.50;83.10;;;;;;10985901;32;20023;-71
2023/07/24 08:11:16;;;;;;;9.73;6.37;;;28.40;83.60;;;;;;10972234;32;20180;-71
2023/07/24 08:17:18;;;;;;;10.55;4.68;;;28.30;84.30;;;;;;10985518;32;20018;-71
2023/07/24 08:23:20;;;;;;;7.95;4.72;;;28.40;85.30;;;;;;10954543;32;20023;-72
2023/07/24 08:29:22;;;;;;;13.32;5.60;;;28.50;84.80;;;;;;10947274;32;20053;-71
2023/07/24 08:35:24;;;;;;;7.90;4.57;;;28.70;84.60;;;;;;10946929;32;20041;-72
2023/07/24 08:41:26;;;;;;;7.03;4.22;;;28.80;84.40;;;;;;10933202;32;20120;-72
2023/07/24 08:47:29;;;;;;;8.60;5.32;;;29.00;83.60;;;;;;10945726;32;20341;-71
2023/07/24 08:53:36;;;;;;;9.93;7.20;;;29.20;82.20;;;;;;10946379;32;20024;-70
2023/07/24 08:59:38;;;;;;;11.70;6.68;;;29.20;81.80;;;;;;10946117;32;20061;-70
2023/07/24 09:05:40;;;;;;;10.38;5.90;;;28.80;81.60;;;;;;10932593;32;20015;-73
2023/07/24 09:11:50;;;;;;;6.32;4.07;;;28.50;81.80;;;;;;10945900;32;20022;-73
2023/07/24 09:17:53;;;;;;;10.82;4.70;;;28.40;81.90;;;;;;10931792;32;20035;-73
2023/07/24 09:23:55;;;;;;;9.57;5.70;;;28.50;82.00;;;;;;10931788;32;20027;-73
2023/07/24 09:29:57;;;;;;;7.12;4.05;;;28.60;82.50;;;;;;10945158;32;20393;-72
2023/07/24 09:36:04;;;;;;;8.30;4.40;;;28.80;82.10;;;;;;10931294;32;20038;-73
2023/07/24 09:42:06;;;;;;;7.32;4.87;;;29.20;82.00;;;;;;10944629;32;20141;-73
2023/07/24 09:48:11;;;;;;;8.38;5.30;;;29.10;82.40;;;;;;10931063;32;20043;-72
2023/07/24 09:54:26;;;;;;;6.47;4.55;;;29.00;82.70;;;;;;10930395;32;20026;-73
2023/07/24 10:00:29;;;;;;;10.63;5.53;;;29.00;83.00;;;;;;10943616;32;20332;-73
2023/07/24 10:06:31;;;;;;;10.07;4.12;;;29.30;83.00;;;;;;10943793;32;20041;-73
2023/07/24 10:12:34;;;;;;;7.62;4.45;;;29.60;82.00;;;;;;10943559;32;20019;-73
2023/07/24 10:18:44;;;;;;;9.63;4.43;;;29.50;81.80;;;;;;10943381;32;20073;-73
2023/07/24 10:24:47;;;;;;;8.65;4.85;;;29.40;82.40;;;;;;10943140;32;20062;-73
2023/07/24 10:30:56;;;;;;;10.13;4.30;;;29.30;82.50;;;;;;10943010;32;20344;-73
2023/07/24 10:37:03;;;;;;;7.78;4.65;;;29.30;82.20;;;;;;10942885;32;20027;-73
2023/07/24 10:43:12;;;;;;;9.23;5.10;;;29.30;82.80;;;;;;10462277;27;12174620;-73
2023/07/24 10:49:22;;;;;;;10.15;4.80;;;29.30;83.40;;;;;;10676667;33;20048;-72
2023/07/24 10:55:24;;;;;;;12.23;6.10;;;29.30;82.80;;;;;;10664625;33;20022;-72
2023/07/24 11:01:27;;;;;;;11.32;6.55;;;29.30;83.80;;;;;;10675681;33;20447;-71
2023/07/24 11:07:32;;;;;;;11.15;5.68;;;29.30;83.80;;;;;;10660880;33;20029;-73
2023/07/24 11:13:34;;;;;;;8.50;6.20;;;29.30;83.30;;;;;;10750579;33;20047;-73
2023/07/24 11:19:37;;;;;;;9.95;6.28;;;29.30;83.00;;;;;;10751013;33;20044;-73
2023/07/24 11:25:39;;;;;;;8.38;5.30;;;29.30;83.10;;;;;;10750822;33;20035;-71
2023/07/24 11:31:41;;;;;;;9.88;5.37;;;29.20;82.90;;;;;;10750907;33;20386;-73
2023/07/24 11:37:43;;;;;;;11.20;6.60;;;29.10;82.60;;;;;;10750476;33;20292;-74
2023/07/24 11:43:47;;;;;;;13.98;6.90;;;29.10;82.00;;;;;;10749820;33;20047;-73
2023/07/24 11:50:02;;;;;;;10.52;7.43;;;29.00;81.80;;;;;;10750541;33;20051;-72
2023/07/24 11:56:14;;;;;;;9.95;6.00;;;28.90;81.70;;;;;;10750426;33;20016;-73
2023/07/24 12:02:16;;;;;;;9.27;5.28;;;29.00;82.50;;;;;;10750132;33;20020;-72
2023/07/24 12:08:22;;;;;;;12.43;5.22;;;29.30;82.40;;;;;;10749993;33;20013;-73
2023/07/24 12:14:25;;;;;;;10.90;5.78;;;29.80;80.60;;;;;;10748691;33;20029;-73
2023/07/24 12:20:27;;;;;;;12.95;7.40;;;29.90;79.70;;;;;;10750153;32;20086;-73
2023/07/24 12:26:30;;;;;;;12.15;6.53;;;30.00;79.20;;;;;;10755775;33;20048;-74
2023/07/24 12:32:33;;;;;;;10.57;6.80;;;30.10;79.00;;;;;;10755726;33;20031;-74
2023/07/24 12:38:35;;;;;;;13.60;7.03;;;30.10;78.80;;;;;;10754898;33;20377;-73
2023/07/24 12:44:37;;;;;;;9.73;6.00;;;30.40;78.90;;;;;;10755114;32;20058;-73
2023/07/24 12:50:38;;;;;;;10.80;7.00;;;30.60;78.50;;;;;;10755141;33;20444;-72
2023/07/24 12:56:40;;;;;;;9.35;6.35;;;30.60;79.70;;;;;;10755175;33;20017;-71
2023/07/24 13:02:42;;;;;;;9.77;7.00;;;30.60;80.20;;;;;;10754785;33;20040;-71
2023/07/24 13:08:44;;;;;;;11.35;6.25;;;30.40;79.50;;;;;;10754239;33;20029;-70
2023/07/24 13:14:46;;;;;;;16.10;7.85;;;30.50;79.10;;;;;;10754412;33;20039;-71
2023/07/24 13:20:48;;;;;;;11.90;6.87;;;30.60;78.90;;;;;;10754285;33;20017;-72
2023/07/24 13:26:50;;;;;;;11.95;6.95;;;30.60;78.70;;;;;;10753861;33;20406;-73
2023/07/24 13:32:52;;;;;;;15.02;6.18;;;30.40;78.10;;;;;;10752210;33;20032;-72
2023/07/24 13:38:54;;;;;;;11.90;6.95;;;30.30;78.20;;;;;;10753732;33;20044;-71
2023/07/24 13:44:57;;;;;;;13.20;5.80;;;30.30;77.90;;;;;;10753500;33;20020;-72
2023/07/24 13:50:59;;;;;;;8.65;5.80;;;30.20;77.60;;;;;;10753055;33;20047;-72
2023/07/24 13:57:01;;;;;;;9.63;5.60;;;30.20;78.50;;;;;;10752955;33;20021;-73
2023/07/24 14:03:03;;;;;;;8.82;5.35;;;30.10;78.20;;;;;;10752832;32;20367;-73
2023/07/24 14:09:05;;;;;;;10.02;6.20;;;30.00;78.40;;;;;;10752492;33;20021;-73
2023/07/24 14:15:07;;;;;;;11.68;6.25;;;30.00;78.40;;;;;;10748310;33;20044;-73
2023/07/24 14:21:12;;;;;;;7.65;5.15;;;29.90;77.60;;;;;;10751790;32;20330;-73
2023/07/24 14:27:14;;;;;;;10.02;4.97;;;29.80;77.70;;;;;;10750453;33;20025;-72
2023/07/24 14:33:16;;;;;;;10.40;5.05;;;29.80;77.90;;;;;;10751900;33;20055;-71
2023/07/24 14:39:18;;;;;;;8.15;5.60;;;29.90;80.50;;;;;;10762751;33;20029;-71
2023/07/24 14:45:20;;;;;;;10.15;4.87;;;29.80;81.20;;;;;;10750614;33;20028;-71
2023/07/24 14:51:23;;;;;;;14.05;5.20;;;29.90;81.90;;;;;;10749603;33;20067;-72
2023/07/24 14:57:25;;;;;;;16.40;6.60;;;30.30;81.40;;;;;;10739152;32;20028;-70
2023/07/24 15:03:27;;;;;;;11.80;6.03;;;30.30;81.50;;;;;;10749583;33;20106;-72
2023/07/24 15:09:29;;;;;;;13.25;7.35;;;30.30;81.40;;;;;;10748032;33;20043;-71
2023/07/24 15:15:31;;;;;;;13.57;8.35;;;30.30;82.00;;;;;;10746977;33;20021;-70
2023/07/24 15:21:33;;;;;;;12.27;7.22;;;30.30;81.80;;;;;;10750634;33;20017;-71
2023/07/24 15:27:36;;;;;;;10.63;6.65;;;30.30;81.70;;;;;;10749217;33;20303;-71
2023/07/24 15:33:38;;;;;;;11.43;6.65;;;30.30;82.00;;;;;;10750449;33;20051;-72
2023/07/24 15:39:40;;;;;;;12.32;6.78;;;30.30;81.50;;;;;;10751441;33;20013;-70
2023/07/24 15:45:42;;;;;;;13.82;7.35;;;30.30;79.80;;;;;;10750338;33;20043;-72
2023/07/24 15:51:44;;;;;;;15.05;8.70;;;30.30;80.50;;;;;;10749915;33;20387;-69
2023/07/24 15:57:47;;;;;;;14.02;8.02;;;30.30;79.90;;;;;;10753793;33;20283;-72
2023/07/24 16:03:49;;;;;;;12.65;6.28;;;30.20;79.30;;;;;;10756563;33;20025;-72
2023/07/24 16:09:51;;;;;;;10.57;7.50;;;30.20;80.10;;;;;;10755607;33;20021;-71
2023/07/24 16:15:53;;;;;;;12.00;6.87;;;30.20;79.70;;;;;;10756511;33;20140;-71
2023/07/24 16:21:56;;;;;;;10.93;7.70;;;30.20;80.20;;;;;;10756824;33;20051;-71
2023/07/24 16:27:58;;;;;;;11.27;7.00;;;30.10;80.70;;;;;;10756634;33;20052;-71
2023/07/24 16:34:00;;;;;;;11.18;6.15;;;30.10;81.80;;;;;;10756222;33;20036;-72
2023/07/24 16:40:03;;;;;;;13.90;7.80;;;30.10;81.10;;;;;;10752246;33;20051;-72
2023/07/24 16:46:05;;;;;;;11.25;6.40;;;30.10;80.00;;;;;;10754664;33;20016;-71
2023/07/24 16:52:07;;;;;;;10.98;7.50;;;30.10;79.60;;;;;;10745879;33;20075;-71
2023/07/24 16:58:09;;;;;;;12.63;7.68;;;30.00;79.10;;;;;;10728552;33;20052;-71
2023/07/24 17:04:11;;;;;;;13.13;9.23;;;30.00;79.20;;;;;;10716974;33;20059;-72
2023/07/24 17:10:14;;;;;;;13.07;8.35;;;30.00;79.70;;;;;;10716176;33;20047;-70
2023/07/24 17:16:17;;;;;;;12.43;6.80;;;29.80;79.60;;;;;;10716881;33;20041;-72
2023/07/24 17:22:20;;;;;;;12.02;7.25;;;29.80;79.90;;;;;;10716679;33;20444;-70
2023/07/24 17:28:22;;;;;;;9.00;6.07;;;29.70;80.00;;;;;;10719035;33;20044;-71
2023/07/24 17:34:24;;;;;;;14.20;7.82;;;29.70;80.00;;;;;;10716655;33;20017;-72
2023/07/24 17:40:26;;;;;;;9.45;5.03;;;29.60;80.20;;;;;;10718892;33;20391;-72
2023/07/24 17:46:28;;;;;;;9.93;6.25;;;29.50;80.90;;;;;;10713358;33;20057;-71
2023/07/24 17:52:30;;;;;;;10.70;6.95;;;29.60;80.80;;;;;;10729487;32;20036;-72
2023/07/24 17:58:33;;;;;;;9.57;5.90;;;29.60;80.40;;;;;;10713284;33;20051;-71
2023/07/24 18:04:35;;;;;;;12.75;7.47;;;29.40;79.90;;;;;;10718263;33;20056;-71
2023/07/24 18:10:37;;;;;;;12.30;6.47;;;29.30;80.20;;;;;;10714551;33;20028;-71
2023/07/24 18:16:39;;;;;;;10.07;5.30;;;29.30;80.20;;;;;;10718362;33;20021;-72
2023/07/24 18:22:42;;;;;;;8.85;5.70;;;29.10;80.40;;;;;;10716925;33;20021;-72
2023/07/24 18:28:44;;;;;;;14.73;6.40;;;29.10;80.80;;;;;;10717412;33;20430;-73
2023/07/24 18:34:46;;;;;;;8.73;4.80;;;29.00;81.20;;;;;;10715420;33;20039;-72
2023/07/24 18:40:48;;;;;;;7.30;3.92;;;28.90;81.70;;;;;;10736943;27;20441;-72
2023/07/24 18:46:51;;;;;;;10.55;6.32;;;28.90;82.20;;;;;;10751286;33;20051;-72
2023/07/24 18:52:53;;;;;;;8.55;5.25;;;28.90;82.40;;;;;;10752900;33;20017;-72
2023/07/24 18:58:55;;;;;;;11.57;6.93;;;28.80;82.70;;;;;;10752231;33;20425;-72
2023/07/24 19:04:58;;;;;;;8.45;5.12;;;28.80;82.90;;;;;;10752549;33;20052;-72
2023/07/24 19:11:01;;;;;;;8.27;4.97;;;28.80;83.00;;;;;;10751118;33;20020;-71
2023/07/24 19:17:03;;;;;;;7.37;4.60;;;28.80;82.90;;;;;;10751769;33;20021;-72
2023/07/24 19:23:05;;;;;;;11.60;4.47;;;28.80;83.30;;;;;;10750605;33;20029;-72
2023/07/24 19:29:07;;;;;;;8.73;4.68;;;28.70;83.40;;;;;;10752053;33;20021;-72
2023/07/24 19:35:10;;;;;;;7.25;4.37;;;28.60;83.50;;;;;;10756995;33;20024;-72
2023/07/24 19:41:12;;;;;;;11.65;4.62;;;28.60;84.10;;;;;;10740205;33;20076;-72
2023/07/24 19:47:14;;;;;;;7.07;4.72;;;28.50;83.80;;;;;;10719095;33;20041;-72
2023/07/24 19:53:21;;;;;;;9.30;5.22;;;28.40;83.80;;;;;;10720546;33;20043;-72
2023/07/24 19:59:27;;;;;;;8.50;5.03;;;28.40;84.00;;;;;;10720477;33;20047;-72
2023/07/24 20:05:29;;;;;;;7.32;4.05;;;28.30;83.90;;;;;;10720062;33;20095;-72
2023/07/24 20:11:31;;;;;;;8.00;4.20;;;28.40;83.90;;;;;;10720016;33;20016;-72
2023/07/24 20:17:33;;;;;;;11.52;4.47;;;28.30;84.30;;;;;;10719896;33;20021;-70
2023/07/24 20:23:35;;;;;;;9.75;6.10;;;28.30;84.40;;;;;;10719680;33;20013;-72
2023/07/24 20:29:37;;;;;;;12.57;4.65;;;28.30;84.40;;;;;;10718895;33;20017;-72
2023/07/24 20:35:39;;;;;;;7.30;3.80;;;28.20;84.10;;;;;;10719439;33;20021;-72
2023/07/24 20:41:41;;;;;;;7.18;3.80;;;28.20;84.00;;;;;;10716263;33;20063;-72
2023/07/24 20:47:43;;;;;;;9.85;4.03;;;28.20;83.70;;;;;;10719161;33;20009;-72
2023/07/24 20:53:45;;;;;;;6.40;3.55;;;28.00;84.00;;;;;;10719025;33;20029;-71
2023/07/24 20:59:47;;;;;;;6.68;2.97;;;27.80;84.10;;;;;;10718804;33;20017;-71
2023/07/24 21:05:50;;;;;;;6.18;2.85;;;27.70;84.40;;;;;;10718573;33;20051;-69
2023/07/24 21:11:52;;;;;;;8.52;4.03;;;27.60;84.20;;;;;;10725825;33;20048;-72
2023/07/24 21:17:54;;;;;;;5.93;2.58;;;27.40;83.00;;;;;;10718305;33;20289;-71
2023/07/24 21:23:56;;;;;;;4.20;2.28;;;27.30;83.50;;;;;;10718074;33;20017;-71
2023/07/24 21:29:58;;;;;;;6.05;2.92;;;27.20;83.80;;;;;;10717964;33;20079;-71
2023/07/24 21:36:02;;;;;;;4.28;2.65;;;27.10;82.90;;;;;;10717770;33;20017;-72
2023/07/24 21:42:04;;;;;;;6.55;2.70;;;27.10;83.10;;;;;;10717532;33;20025;-71
2023/07/24 21:48:07;;;;;;;3.20;2.00;;;27.10;83.70;;;;;;10717481;33;20410;-71
2023/07/24 21:54:09;;;;;;;7.22;2.45;;;27.10;83.50;;;;;;10719404;33;20029;-71
2023/07/24 22:00:11;;;;;;;5.15;2.28;;;26.90;84.50;;;;;;10744538;33;20059;-72
2023/07/24 22:06:16;;;;;;;7.32;2.78;;;26.60;83.60;;;;;;10730040;33;20043;-71
2023/07/24 22:12:20;;;;;;;7.30;2.65;;;26.20;83.60;;;;;;10746627;32;20060;-73
2023/07/24 22:18:22;;;;;;;5.00;1.62;;;25.70;83.70;;;;;;10752912;33;20059;-71
2023/07/24 22:24:25;;;;;;;4.45;1.85;;;25.50;84.20;;;;;;10752471;33;20024;-70
2023/07/24 22:30:28;;;;;;;3.17;1.65;;;25.70;84.20;;;;;;10752467;33;20075;-71
2023/07/24 22:36:30;;;;;;;2.65;1.20;;;26.00;83.80;;;;;;10752347;33;20020;-72
2023/07/24 22:42:32;;;;;;;4.00;1.85;;;26.10;83.30;;;;;;10752118;33;20055;-72
2023/07/24 22:48:34;;;;;;;2.33;1.35;;;26.10;83.50;;;;;;10752231;33;20308;-72
2023/07/24 22:54:36;;;;;;;3.17;1.30;;;26.10;83.30;;;;;;10751966;33;20025;-73
2023/07/24 23:00:38;;;;;;;2.22;0.80;;;26.00;83.50;;;;;;10751625;33;20048;-73
2023/07/24 23:06:40;;;;;;;3.62;1.45;;;26.10;83.30;;;;;;10750648;33;20049;-73
2023/07/24 23:12:42;;;;;;;1.77;1.08;;;26.10;83.20;;;;;;10747317;32;20067;-73
2023/07/24 23:18:44;;;;;;;4.55;1.42;;;26.10;83.30;;;;;;10751380;33;20035;-73
2023/07/24 23:24:45;;;;;;;3.50;1.27;;;26.10;83.40;;;;;;10748605;33;20335;-73
2023/07/24 23:30:47;;;;;;;2.17;1.42;;;26.10;83.60;;;;;;10750777;33;20045;-72
2023/07/24 23:36:50;;;;;;;2.75;1.10;;;26.10;83.90;;;;;;10750956;33;20403;-73
2023/07/24 23:42:52;;;;;;;4.45;1.40;;;26.00;83.80;;;;;;10751131;33;20028;-73
2023/07/24 23:48:54;;;;;;;2.45;1.23;;;25.90;83.90;;;;;;10747482;33;20394;-72
2023/07/24 23:54:56;;;;;;;3.00;1.00;;;25.90;83.60;;;;;;10751263;33;20305;-73
